createdAt,value
2022-10-01T00:00:59.807Z,5.30
2022-10-01T00:01:59.850Z,5.70
2022-10-01T00:02:59.814Z,5.80
2022-10-01T00:03:59.769Z,4.60
2022-10-01T00:04:59.759Z,5.90
2022-10-01T00:05:59.731Z,6.50
2022-10-01T00:06:59.720Z,4.90
2022-10-01T00:07:59.712Z,5.40
2022-10-01T00:08:59.690Z,5.10
2022-10-01T00:09:59.672Z,6.70
2022-10-01T00:10:59.662Z,5.80
2022-10-01T00:11:59.656Z,5.60
2022-10-01T00:12:59.641Z,10.20
2022-10-01T00:13:59.621Z,5.20
2022-10-01T00:15:02.024Z,5.60
2022-10-01T00:15:59.597Z,7.90
2022-10-01T00:16:59.725Z,6.10
2022-10-01T00:17:59.571Z,6.90
2022-10-01T00:18:59.554Z,7.00
2022-10-01T00:19:59.537Z,6.70
2022-10-01T00:20:59.523Z,9.40
2022-10-01T00:21:59.505Z,5.70
2022-10-01T00:22:59.522Z,7.40
2022-10-01T00:23:59.490Z,8.30
2022-10-01T00:24:59.467Z,7.50
2022-10-01T00:25:59.453Z,6.60
2022-10-01T00:26:59.445Z,7.50
2022-10-01T00:27:59.445Z,6.70
2022-10-01T00:28:59.429Z,7.30
2022-10-01T00:29:59.403Z,6.90
2022-10-01T00:30:59.437Z,6.50
2022-10-01T00:31:59.410Z,6.80
2022-10-01T00:32:59.363Z,7.60
2022-10-01T00:33:59.347Z,8.40
2022-10-01T00:34:59.346Z,9.30
2022-10-01T00:35:59.331Z,6.80
2022-10-01T00:36:59.349Z,7.00
2022-10-01T00:37:59.293Z,8.10
2022-10-01T00:38:59.283Z,6.80
2022-10-01T00:39:59.277Z,6.30
2022-10-01T00:40:59.253Z,8.10
2022-10-01T00:41:59.258Z,7.30
2022-10-01T00:42:59.229Z,7.00
2022-10-01T00:43:59.213Z,9.80
2022-10-01T00:44:59.215Z,8.00
2022-10-01T00:45:59.332Z,7.80
2022-10-01T00:46:59.188Z,8.40
2022-10-01T00:47:59.188Z,9.50
2022-10-01T00:48:59.183Z,7.20
2022-10-01T00:49:59.624Z,7.80
2022-10-01T00:50:59.143Z,8.60
2022-10-01T00:51:59.120Z,9.90
2022-10-01T00:52:59.114Z,10.00
2022-10-01T00:53:59.085Z,8.60
2022-10-01T00:54:59.098Z,9.80
2022-10-01T00:55:59.054Z,8.60
2022-10-01T00:56:59.049Z,8.80
2022-10-01T00:57:59.064Z,10.20
2022-10-01T00:58:59.025Z,10.00
2022-10-01T00:59:59.009Z,10.70
2022-10-01T01:00:59.047Z,9.50
2022-10-01T01:01:59.006Z,9.70
2022-10-01T01:02:58.982Z,11.00
2022-10-01T01:03:58.977Z,11.50
2022-10-01T01:04:58.944Z,11.70
2022-10-01T01:05:58.930Z,15.30
2022-10-01T01:06:58.917Z,12.10
2022-10-01T01:07:58.909Z,11.40
2022-10-01T01:08:58.900Z,11.40
2022-10-01T01:09:58.873Z,12.30
2022-10-01T01:10:58.873Z,12.20
2022-10-01T01:11:58.853Z,16.50
2022-10-01T01:12:58.849Z,13.40
2022-10-01T01:13:58.829Z,13.30
2022-10-01T01:14:58.818Z,13.30
2022-10-01T01:15:58.832Z,13.00
2022-10-01T01:16:58.785Z,13.90
2022-10-01T01:17:58.777Z,13.50
2022-10-01T01:18:58.757Z,14.30
2022-10-01T01:19:58.742Z,13.20
2022-10-01T01:20:58.732Z,12.60
2022-10-01T01:21:58.721Z,15.00
2022-10-01T01:22:58.723Z,14.40
2022-10-01T01:23:58.707Z,13.40
2022-10-01T01:24:58.694Z,14.60
2022-10-01T01:25:58.669Z,13.40
2022-10-01T01:26:58.665Z,13.90
2022-10-01T01:27:58.738Z,16.80
2022-10-01T01:28:58.640Z,15.00
2022-10-01T01:29:58.617Z,13.00
2022-10-01T01:30:58.654Z,15.40
2022-10-01T01:31:58.597Z,14.40
2022-10-01T01:32:58.576Z,15.10
2022-10-01T01:33:58.571Z,14.40
2022-10-01T01:34:58.564Z,14.70
2022-10-01T01:35:58.532Z,16.10
2022-10-01T01:36:58.531Z,14.50
2022-10-01T01:37:58.516Z,17.80
2022-10-01T01:38:58.507Z,13.80
2022-10-01T01:39:58.493Z,15.30
2022-10-01T01:40:58.475Z,13.60
2022-10-01T01:41:58.455Z,14.90
2022-10-01T01:42:58.451Z,14.20
2022-10-01T01:43:58.444Z,15.10
2022-10-01T01:44:58.428Z,13.30
2022-10-01T01:45:58.454Z,15.70
2022-10-01T01:46:58.402Z,14.20
2022-10-01T01:47:58.380Z,15.30
2022-10-01T01:48:58.382Z,14.70
2022-10-01T01:49:58.363Z,12.80
2022-10-01T01:50:58.350Z,13.00
2022-10-01T01:51:58.333Z,15.00
2022-10-01T01:52:58.321Z,14.90
2022-10-01T01:53:58.312Z,14.00
2022-10-01T01:54:58.301Z,14.10
2022-10-01T01:55:58.287Z,14.60
2022-10-01T01:56:58.281Z,13.50
2022-10-01T01:57:58.262Z,16.20
2022-10-01T01:58:58.256Z,12.10
2022-10-01T01:59:58.236Z,13.70
2022-10-01T02:00:58.241Z,14.70
2022-10-01T02:01:58.353Z,14.50
2022-10-01T02:02:58.258Z,11.40
2022-10-01T02:03:58.211Z,14.40
2022-10-01T02:04:58.181Z,14.30
2022-10-01T02:05:58.162Z,11.70
2022-10-01T02:06:58.181Z,13.50
2022-10-01T02:07:58.140Z,13.90
2022-10-01T02:08:58.131Z,12.10
2022-10-01T02:09:58.117Z,13.70
2022-10-01T02:10:58.101Z,12.20
2022-10-01T02:11:58.086Z,12.60
2022-10-01T02:12:58.082Z,13.60
2022-10-01T02:13:58.060Z,12.70
2022-10-01T02:14:58.060Z,12.00
2022-10-01T02:15:58.115Z,13.30
2022-10-01T02:16:58.027Z,13.30
2022-10-01T02:17:58.015Z,11.80
2022-10-01T02:18:58.007Z,11.60
2022-10-01T02:19:58.003Z,12.10
2022-10-01T02:20:57.984Z,14.50
2022-10-01T02:21:57.970Z,12.30
2022-10-01T02:22:57.963Z,11.70
2022-10-01T02:23:57.943Z,11.20
2022-10-01T02:24:57.964Z,11.80
2022-10-01T02:25:57.912Z,12.90
2022-10-01T02:26:57.925Z,12.90
2022-10-01T02:27:57.974Z,11.40
2022-10-01T02:28:57.885Z,13.10
2022-10-01T02:29:57.884Z,11.60
2022-10-01T02:30:57.897Z,11.60
2022-10-01T02:31:57.836Z,10.40
2022-10-01T02:32:57.827Z,13.00
2022-10-01T02:33:57.830Z,10.20
2022-10-01T02:34:57.829Z,10.70
2022-10-01T02:35:57.787Z,11.50
2022-10-01T02:36:57.774Z,11.30
2022-10-01T02:37:57.785Z,11.30
2022-10-01T02:38:57.755Z,11.20
2022-10-01T02:39:57.737Z,10.00
2022-10-01T02:40:57.735Z,11.10
2022-10-01T02:41:57.715Z,11.50
2022-10-01T02:42:57.703Z,11.40
2022-10-01T02:43:57.682Z,9.90
2022-10-01T02:44:57.674Z,9.40
2022-10-01T02:45:57.768Z,9.60
2022-10-01T02:46:57.652Z,9.80
2022-10-01T02:47:57.631Z,10.20
2022-10-01T02:48:57.621Z,10.10
2022-10-01T02:49:57.633Z,10.20
2022-10-01T02:50:57.616Z,10.30
2022-10-01T02:51:57.614Z,9.90
2022-10-01T02:52:57.599Z,8.90
2022-10-01T02:53:57.556Z,9.60
2022-10-01T02:54:57.549Z,9.00
2022-10-01T02:55:57.541Z,9.50
2022-10-01T02:56:57.524Z,8.70
2022-10-01T02:57:57.515Z,11.20
2022-10-01T02:58:57.500Z,9.40
2022-10-01T02:59:57.491Z,10.50
2022-10-01T03:00:57.493Z,9.60
2022-10-01T03:01:57.669Z,9.00
2022-10-01T03:02:57.527Z,8.20
2022-10-01T03:03:57.466Z,9.10
2022-10-01T03:04:57.424Z,11.00
2022-10-01T03:05:57.426Z,10.80
2022-10-01T03:06:57.402Z,8.50
2022-10-01T03:07:57.382Z,9.00
2022-10-01T03:08:57.388Z,10.00
2022-10-01T03:09:57.359Z,9.50
2022-10-01T03:10:57.349Z,11.00
2022-10-01T03:11:57.345Z,8.70
2022-10-01T03:12:57.325Z,12.40
2022-10-01T03:13:57.314Z,9.80
2022-10-01T03:14:57.300Z,9.10
2022-10-01T03:15:57.298Z,8.60
2022-10-01T03:16:57.285Z,10.70
2022-10-01T03:17:57.259Z,9.00
2022-10-01T03:18:57.250Z,9.30
2022-10-01T03:19:57.241Z,8.00
2022-10-01T03:20:57.224Z,8.80
2022-10-01T03:21:57.221Z,10.30
2022-10-01T03:22:57.223Z,8.30
2022-10-01T03:23:57.204Z,8.10
2022-10-01T03:24:57.174Z,9.10
2022-10-01T03:25:57.162Z,8.80
2022-10-01T03:26:57.154Z,8.20
2022-10-01T03:27:57.175Z,9.50
2022-10-01T03:28:57.122Z,8.50
2022-10-01T03:29:57.140Z,10.00
2022-10-01T03:30:57.124Z,10.70
2022-10-01T03:31:57.092Z,9.40
2022-10-01T03:32:57.070Z,8.30
2022-10-01T03:33:57.077Z,9.20
2022-10-01T03:34:57.074Z,8.60
2022-10-01T03:35:57.042Z,8.80
2022-10-01T03:36:57.032Z,8.90
2022-10-01T03:37:57.025Z,8.30
2022-10-01T03:38:56.994Z,8.80
2022-10-01T03:39:56.988Z,8.90
2022-10-01T03:40:56.986Z,9.10
2022-10-01T03:41:56.975Z,8.40
2022-10-01T03:42:56.956Z,10.40
2022-10-01T03:44:00.419Z,9.20
2022-10-01T03:44:56.919Z,8.40
2022-10-01T03:45:56.999Z,9.50
2022-10-01T03:46:56.925Z,8.90
2022-10-01T03:47:56.889Z,9.10
2022-10-01T03:48:56.899Z,10.70
2022-10-01T03:49:56.864Z,9.80
2022-10-01T03:50:56.852Z,9.60
2022-10-01T03:51:56.839Z,9.20
2022-10-01T03:52:56.839Z,9.90
2022-10-01T03:53:56.817Z,8.90
2022-10-01T03:54:56.796Z,8.10
2022-10-01T03:55:56.793Z,7.80
2022-10-01T03:56:56.770Z,9.00
2022-10-01T03:57:56.795Z,9.60
2022-10-01T03:58:56.765Z,8.90
2022-10-01T03:59:56.770Z,10.40
2022-10-01T04:00:56.738Z,8.20
2022-10-01T04:01:56.827Z,7.90
2022-10-01T04:02:56.742Z,7.20
2022-10-01T04:03:56.693Z,8.90
2022-10-01T04:04:56.679Z,9.90
2022-10-01T04:05:56.673Z,8.10
2022-10-01T04:06:56.655Z,10.10
2022-10-01T04:07:56.658Z,7.70
2022-10-01T04:08:56.637Z,12.60
2022-10-01T04:09:56.617Z,8.20
2022-10-01T04:10:56.601Z,8.20
2022-10-01T04:11:56.607Z,8.40
2022-10-01T04:12:56.598Z,7.00
2022-10-01T04:13:56.566Z,9.10
2022-10-01T04:14:56.561Z,7.20
2022-10-01T04:15:56.583Z,8.00
2022-10-01T04:16:56.526Z,9.50
2022-10-01T04:17:56.529Z,7.10
2022-10-01T04:18:56.503Z,7.00
2022-10-01T04:19:56.493Z,11.50
2022-10-01T04:20:56.486Z,6.60
2022-10-01T04:21:56.484Z,6.60
2022-10-01T04:22:56.458Z,9.30
2022-10-01T04:23:56.446Z,7.00
2022-10-01T04:24:56.437Z,6.30
2022-10-01T04:25:56.424Z,6.80
2022-10-01T04:26:56.409Z,6.30
2022-10-01T04:27:56.470Z,7.40
2022-10-01T04:28:56.385Z,7.70
2022-10-01T04:29:56.374Z,6.30
2022-10-01T04:30:56.363Z,6.60
2022-10-01T04:31:56.443Z,7.00
2022-10-01T04:32:56.341Z,8.40
2022-10-01T04:33:56.341Z,7.10
2022-10-01T04:34:56.310Z,8.30
2022-10-01T04:35:56.306Z,6.90
2022-10-01T04:36:56.294Z,6.70
2022-10-01T04:37:56.293Z,8.00
2022-10-01T04:39:00.811Z,9.80
2022-10-01T04:39:56.257Z,8.10
2022-10-01T04:40:56.261Z,9.00
2022-10-01T04:41:56.225Z,7.60
2022-10-01T04:42:56.230Z,7.30
2022-10-01T04:43:56.210Z,7.80
2022-10-01T04:44:56.189Z,6.50
2022-10-01T04:45:56.193Z,7.00
2022-10-01T04:46:56.234Z,6.20
2022-10-01T04:47:56.159Z,7.50
2022-10-01T04:48:56.150Z,7.00
2022-10-01T04:49:56.128Z,7.40
2022-10-01T04:50:56.112Z,7.00
2022-10-01T04:51:56.100Z,6.70
2022-10-01T04:52:56.085Z,7.70
2022-10-01T04:53:56.095Z,7.50
2022-10-01T04:54:56.061Z,6.20
2022-10-01T04:55:56.075Z,7.30
2022-10-01T04:56:56.037Z,8.00
2022-10-01T04:57:56.053Z,7.70
2022-10-01T04:58:56.018Z,7.40
2022-10-01T04:59:56.002Z,6.90
2022-10-01T05:01:01.018Z,6.40
2022-10-01T05:01:55.999Z,8.50
2022-10-01T05:02:55.957Z,7.50
2022-10-01T05:03:55.958Z,10.60
2022-10-01T05:04:55.939Z,9.00
2022-10-01T05:05:55.930Z,7.80
2022-10-01T05:06:55.912Z,7.30
2022-10-01T05:07:55.916Z,7.20
2022-10-01T05:08:55.885Z,7.70
2022-10-01T05:09:55.885Z,9.70
2022-10-01T05:10:55.859Z,7.50
2022-10-01T05:11:55.847Z,7.30
2022-10-01T05:12:55.838Z,7.80
2022-10-01T05:13:55.824Z,8.10
2022-10-01T05:14:55.853Z,8.70
2022-10-01T05:15:55.870Z,7.90
2022-10-01T05:16:55.854Z,8.50
2022-10-01T05:17:55.776Z,8.60
2022-10-01T05:18:55.762Z,10.00
2022-10-01T05:19:55.773Z,10.90
2022-10-01T05:20:55.751Z,9.50
2022-10-01T05:21:55.728Z,14.30
2022-10-01T05:22:55.738Z,9.70
2022-10-01T05:23:55.712Z,7.10
2022-10-01T05:24:55.703Z,7.90
2022-10-01T05:25:55.680Z,8.10
2022-10-01T05:26:55.662Z,6.70
2022-10-01T05:27:55.680Z,6.50
2022-10-01T05:28:55.651Z,6.10
2022-10-01T05:29:55.639Z,6.40
2022-10-01T05:30:55.616Z,6.90
2022-10-01T05:31:55.772Z,7.30
2022-10-01T05:32:55.591Z,6.50
2022-10-01T05:33:55.590Z,5.80
2022-10-01T05:34:55.592Z,7.00
2022-10-01T05:35:55.558Z,8.40
2022-10-01T05:36:55.560Z,8.50
2022-10-01T05:37:55.535Z,7.00
2022-10-01T05:38:55.532Z,7.40
2022-10-01T05:39:55.513Z,6.00
2022-10-01T05:40:55.511Z,9.20
2022-10-01T05:41:55.512Z,6.20
2022-10-01T05:42:55.476Z,8.50
2022-10-01T05:43:55.464Z,6.20
2022-10-01T05:44:55.453Z,6.90
2022-10-01T05:45:55.523Z,6.00
2022-10-01T05:46:55.433Z,6.60
2022-10-01T05:47:55.410Z,6.80
2022-10-01T05:48:55.431Z,7.20
2022-10-01T05:49:55.387Z,6.60
2022-10-01T05:50:55.394Z,6.10
2022-10-01T05:51:55.362Z,7.80
2022-10-01T05:52:55.344Z,7.40
2022-10-01T05:53:55.360Z,7.10
2022-10-01T05:54:55.332Z,5.80
2022-10-01T05:55:55.348Z,6.40
2022-10-01T05:56:55.300Z,6.40
2022-10-01T05:57:55.291Z,5.70
2022-10-01T05:58:55.282Z,6.80
2022-10-01T05:59:55.286Z,5.60
2022-10-01T06:00:55.270Z,6.80
2022-10-01T06:01:55.342Z,9.00
2022-10-01T06:02:55.313Z,8.60
2022-10-01T06:03:55.238Z,8.30
2022-10-01T06:04:55.217Z,6.80
2022-10-01T06:05:55.220Z,5.70
2022-10-01T06:06:55.191Z,8.10
2022-10-01T06:07:55.210Z,6.20
2022-10-01T06:08:55.154Z,7.60
2022-10-01T06:09:55.147Z,5.80
2022-10-01T06:10:55.148Z,7.60
2022-10-01T06:11:55.159Z,8.60
2022-10-01T06:12:55.122Z,6.60
2022-10-01T06:13:55.100Z,5.90
2022-10-01T06:14:55.082Z,5.40
2022-10-01T06:15:55.095Z,7.80
2022-10-01T06:16:55.175Z,8.20
2022-10-01T06:17:55.076Z,7.50
2022-10-01T06:18:55.035Z,5.80
2022-10-01T06:19:55.040Z,13.30
2022-10-01T06:20:55.047Z,7.20
2022-10-01T06:21:55.037Z,7.20
2022-10-01T06:22:55.003Z,5.60
2022-10-01T06:23:54.982Z,7.60
2022-10-01T06:24:56.763Z,6.60
2022-10-01T06:25:54.958Z,9.60
2022-10-01T06:26:54.943Z,5.90
2022-10-01T06:27:55.013Z,6.80
2022-10-01T06:28:54.912Z,6.50
2022-10-01T06:29:54.943Z,9.60
2022-10-01T06:30:54.888Z,7.40
2022-10-01T06:31:55.045Z,7.10
2022-10-01T06:32:54.865Z,7.50
2022-10-01T06:33:54.865Z,6.20
2022-10-01T06:34:54.837Z,6.80
2022-10-01T06:35:54.842Z,8.70
2022-10-01T06:36:54.832Z,11.40
2022-10-01T06:37:54.833Z,7.90
2022-10-01T06:38:54.794Z,7.90
2022-10-01T06:39:54.789Z,9.40
2022-10-01T06:40:54.784Z,8.70
2022-10-01T06:41:54.771Z,8.10
2022-10-01T06:42:56.816Z,8.80
2022-10-01T06:43:54.749Z,5.80
2022-10-01T06:44:54.714Z,7.60
2022-10-01T06:45:54.786Z,6.40
2022-10-01T06:46:54.701Z,5.50
2022-10-01T06:47:54.685Z,6.20
2022-10-01T06:48:54.671Z,6.10
2022-10-01T06:49:54.715Z,7.80
2022-10-01T06:50:54.642Z,6.80
2022-10-01T06:51:54.663Z,6.30
2022-10-01T06:52:54.628Z,7.10
2022-10-01T06:53:54.628Z,6.10
2022-10-01T06:54:54.641Z,7.80
2022-10-01T06:55:54.602Z,8.70
2022-10-01T06:56:54.610Z,6.40
2022-10-01T06:57:54.568Z,5.60
2022-10-01T06:58:54.548Z,7.00
2022-10-01T06:59:54.543Z,6.40
2022-10-01T07:00:54.587Z,5.90
2022-10-01T07:01:56.529Z,6.30
2022-10-01T07:02:54.496Z,7.10
2022-10-01T07:03:54.483Z,6.30
2022-10-01T07:04:54.471Z,7.30
2022-10-01T07:05:54.468Z,6.70
2022-10-01T07:06:54.452Z,7.20
2022-10-01T07:07:54.434Z,6.30
2022-10-01T07:08:54.416Z,6.30
2022-10-01T07:09:54.445Z,5.20
2022-10-01T07:10:54.396Z,6.30
2022-10-01T07:11:54.394Z,5.20
2022-10-01T07:12:54.366Z,5.20
2022-10-01T07:13:54.908Z,5.30
2022-10-01T07:14:54.342Z,6.50
2022-10-01T07:15:54.339Z,5.00
2022-10-01T07:16:54.334Z,6.90
2022-10-01T07:17:54.324Z,5.20
2022-10-01T07:18:54.298Z,5.40
2022-10-01T07:19:54.285Z,4.80
2022-10-01T07:20:54.277Z,7.70
2022-10-01T07:21:54.268Z,5.30
2022-10-01T07:22:54.253Z,5.30
2022-10-01T07:23:54.242Z,6.50
2022-10-01T07:24:54.224Z,5.80
2022-10-01T07:25:54.251Z,5.40
2022-10-01T07:26:54.204Z,6.00
2022-10-01T07:27:54.228Z,6.80
2022-10-01T07:28:54.189Z,4.50
2022-10-01T07:29:54.165Z,5.60
2022-10-01T07:30:54.193Z,5.70
2022-10-01T07:31:54.177Z,4.20
2022-10-01T07:32:54.138Z,4.70
2022-10-01T07:33:54.114Z,5.00
2022-10-01T07:34:54.104Z,4.80
2022-10-01T07:35:54.100Z,3.80
2022-10-01T07:36:54.086Z,3.60
2022-10-01T07:37:54.080Z,5.30
2022-10-01T07:38:54.055Z,4.50
2022-10-01T07:39:54.042Z,4.80
2022-10-01T07:40:54.033Z,4.00
2022-10-01T07:41:54.023Z,3.70
2022-10-01T07:42:54.012Z,4.00
2022-10-01T07:43:54.010Z,3.40
2022-10-01T07:44:53.984Z,4.40
2022-10-01T07:45:53.977Z,2.60
2022-10-01T07:46:53.962Z,3.90
2022-10-01T07:47:53.945Z,3.00
2022-10-01T07:48:53.943Z,4.30
2022-10-01T07:49:53.917Z,4.90
2022-10-01T07:50:53.943Z,3.20
2022-10-01T07:51:53.909Z,3.00
2022-10-01T07:52:53.893Z,3.50
2022-10-01T07:53:53.902Z,3.00
2022-10-01T07:54:53.861Z,4.10
2022-10-01T07:55:53.879Z,3.70
2022-10-01T07:56:53.837Z,3.00
2022-10-01T07:57:53.827Z,3.70
2022-10-01T07:58:53.819Z,5.20
2022-10-01T07:59:56.005Z,2.70
2022-10-01T08:00:53.835Z,2.20
2022-10-01T08:01:53.808Z,1.90
2022-10-01T08:02:53.770Z,2.10
2022-10-01T08:03:53.760Z,4.30
2022-10-01T08:04:53.735Z,1.70
2022-10-01T08:05:53.732Z,2.40
2022-10-01T08:06:53.710Z,2.90
2022-10-01T08:07:53.702Z,2.60
2022-10-01T08:08:53.695Z,1.40
2022-10-01T08:09:53.670Z,1.60
2022-10-01T08:10:53.664Z,2.10
2022-10-01T08:11:53.640Z,1.40
2022-10-01T08:12:53.635Z,2.20
2022-10-01T08:13:53.626Z,1.50
2022-10-01T08:14:53.617Z,3.10
2022-10-01T08:15:53.631Z,2.40
2022-10-01T08:16:53.607Z,3.30
2022-10-01T08:17:53.570Z,2.40
2022-10-01T08:18:53.556Z,1.60
2022-10-01T08:19:53.545Z,2.00
2022-10-01T08:20:53.525Z,1.20
2022-10-01T08:21:53.521Z,2.00
2022-10-01T08:22:53.502Z,2.90
2022-10-01T08:23:53.480Z,2.40
2022-10-01T08:24:53.497Z,2.20
2022-10-01T08:25:53.483Z,1.80
2022-10-01T08:26:53.454Z,1.60
2022-10-01T08:27:53.488Z,1.30
2022-10-01T08:28:53.421Z,2.90
2022-10-01T08:29:53.418Z,1.90
2022-10-01T08:30:53.398Z,1.60
2022-10-01T08:31:53.433Z,2.70
2022-10-01T08:32:53.408Z,2.90
2022-10-01T08:33:53.354Z,2.00
2022-10-01T08:34:56.662Z,1.00
2022-10-01T08:35:53.326Z,2.30
2022-10-01T08:36:53.330Z,1.10
2022-10-01T08:37:53.302Z,1.90
2022-10-01T08:38:53.302Z,1.40
2022-10-01T08:39:53.284Z,1.10
2022-10-01T08:40:53.263Z,1.10
2022-10-01T08:41:53.264Z,1.40
2022-10-01T08:42:53.239Z,1.80
2022-10-01T08:43:53.251Z,1.20
2022-10-01T08:44:53.228Z,1.30
2022-10-01T08:45:53.218Z,1.50
2022-10-01T08:46:53.197Z,2.00
2022-10-01T08:47:53.170Z,0.90
2022-10-01T08:48:56.948Z,1.70
2022-10-01T08:49:53.155Z,1.50
2022-10-01T08:50:53.154Z,0.90
2022-10-01T08:51:53.122Z,1.70
2022-10-01T08:52:53.110Z,1.70
2022-10-01T08:53:53.109Z,1.10
2022-10-01T08:54:53.103Z,1.40
2022-10-01T08:55:53.121Z,1.20
2022-10-01T08:56:53.060Z,3.30
2022-10-01T08:57:53.062Z,1.40
2022-10-01T08:58:53.032Z,1.80
2022-10-01T08:59:53.019Z,1.10
2022-10-01T09:00:53.107Z,1.60
2022-10-01T09:01:52.992Z,2.40
2022-10-01T09:02:53.016Z,1.40
2022-10-01T09:03:52.969Z,0.80
2022-10-01T09:04:53.027Z,1.90
2022-10-01T09:05:52.960Z,1.00
2022-10-01T09:06:52.933Z,2.70
2022-10-01T09:07:52.911Z,0.90
2022-10-01T09:08:52.898Z,2.10
2022-10-01T09:09:52.882Z,2.20
2022-10-01T09:10:52.880Z,1.50
2022-10-01T09:11:52.879Z,4.90
2022-10-01T09:12:52.849Z,2.20
2022-10-01T09:13:52.835Z,1.50
2022-10-01T09:14:52.820Z,1.40
2022-10-01T09:15:52.812Z,2.30
2022-10-01T09:16:52.872Z,0.80
2022-10-01T09:17:52.786Z,0.80
2022-10-01T09:18:52.776Z,1.70
2022-10-01T09:19:52.758Z,1.40
2022-10-01T09:20:52.751Z,0.80
2022-10-01T09:21:52.741Z,2.00
2022-10-01T09:22:52.716Z,1.90
2022-10-01T09:23:52.719Z,1.50
2022-10-01T09:24:52.702Z,1.60
2022-10-01T09:25:52.681Z,2.10
2022-10-01T09:26:52.676Z,0.70
2022-10-01T09:27:52.724Z,1.80
2022-10-01T09:28:52.650Z,2.30
2022-10-01T09:29:52.629Z,0.90
2022-10-01T09:30:52.619Z,1.90
2022-10-01T09:31:52.660Z,0.80
2022-10-01T09:32:52.591Z,1.60
2022-10-01T09:33:52.572Z,1.70
2022-10-01T09:34:52.557Z,1.10
2022-10-01T09:35:52.547Z,2.30
2022-10-01T09:36:52.548Z,0.70
2022-10-01T09:37:52.516Z,1.40
2022-10-01T09:38:52.534Z,1.20
2022-10-01T09:39:52.487Z,2.70
2022-10-01T09:40:52.480Z,1.30
2022-10-01T09:41:52.472Z,0.70
2022-10-01T09:42:52.453Z,1.30
2022-10-01T09:43:52.438Z,1.00
2022-10-01T09:44:52.458Z,0.80
2022-10-01T09:45:52.448Z,2.50
2022-10-01T09:46:52.413Z,0.80
2022-10-01T09:47:52.381Z,1.50
2022-10-01T09:48:52.381Z,0.90
2022-10-01T09:49:52.357Z,1.90
2022-10-01T09:50:52.348Z,1.70
2022-10-01T09:51:52.337Z,3.40
2022-10-01T09:52:52.326Z,1.30
2022-10-01T09:53:52.325Z,0.90
2022-10-01T09:54:52.288Z,2.40
2022-10-01T09:55:52.277Z,2.10
2022-10-01T09:56:52.265Z,1.50
2022-10-01T09:57:52.273Z,3.20
2022-10-01T09:58:52.247Z,1.20
2022-10-01T09:59:52.283Z,0.80
2022-10-01T10:00:52.232Z,1.40
2022-10-01T10:01:52.309Z,0.90
2022-10-01T10:02:52.308Z,1.00
2022-10-01T10:03:52.167Z,1.10
2022-10-01T10:04:52.155Z,1.70
2022-10-01T10:05:52.136Z,2.20
2022-10-01T10:06:52.132Z,2.20
2022-10-01T10:07:52.149Z,1.90
2022-10-01T10:08:52.104Z,1.70
2022-10-01T10:09:52.089Z,1.30
2022-10-01T10:10:52.092Z,1.20
2022-10-01T10:11:52.054Z,2.40
2022-10-01T10:12:52.062Z,1.40
2022-10-01T10:13:52.033Z,1.20
2022-10-01T10:14:52.026Z,1.30
2022-10-01T10:15:52.066Z,2.40
2022-10-01T10:16:51.991Z,1.10
2022-10-01T10:17:51.984Z,3.40
2022-10-01T10:18:51.967Z,4.00
2022-10-01T10:19:51.967Z,2.20
2022-10-01T10:20:51.960Z,1.90
2022-10-01T10:21:51.923Z,1.50
2022-10-01T10:22:51.929Z,2.90
2022-10-01T10:23:51.894Z,3.30
2022-10-01T10:24:51.885Z,1.80
2022-10-01T10:25:51.881Z,2.20
2022-10-01T10:26:51.867Z,1.70
2022-10-01T10:27:51.903Z,2.70
2022-10-01T10:28:51.845Z,2.70
2022-10-01T10:29:51.823Z,3.10
2022-10-01T10:30:52.214Z,2.20
2022-10-01T10:31:51.897Z,2.90
2022-10-01T10:32:51.783Z,3.70
2022-10-01T10:33:51.810Z,3.30
2022-10-01T10:34:51.758Z,4.50
2022-10-01T10:35:51.743Z,7.50
2022-10-01T10:36:51.730Z,6.50
2022-10-01T10:37:51.742Z,3.30
2022-10-01T10:38:51.713Z,1.80
2022-10-01T10:39:51.687Z,2.90
2022-10-01T10:40:51.681Z,2.50
2022-10-01T10:41:51.715Z,2.30
2022-10-01T10:42:51.649Z,2.80
2022-10-01T10:43:51.638Z,1.70
2022-10-01T10:44:51.637Z,2.80
2022-10-01T10:45:51.693Z,1.50
2022-10-01T10:46:51.680Z,4.90
2022-10-01T10:47:51.601Z,2.80
2022-10-01T10:48:51.568Z,2.80
2022-10-01T10:49:51.551Z,2.80
2022-10-01T10:50:51.540Z,2.00
2022-10-01T10:51:51.619Z,3.80
2022-10-01T10:52:51.504Z,3.40
2022-10-01T10:53:51.493Z,4.30
2022-10-01T10:54:51.477Z,4.60
2022-10-01T10:55:51.465Z,3.50
2022-10-01T10:56:51.452Z,4.80
2022-10-01T10:57:55.602Z,2.80
2022-10-01T10:58:51.430Z,4.00
2022-10-01T10:59:51.426Z,7.00
2022-10-01T11:00:51.430Z,5.40
2022-10-01T11:01:51.559Z,5.10
2022-10-01T11:02:51.399Z,5.60
2022-10-01T11:03:51.359Z,7.20
2022-10-01T11:04:51.351Z,5.70
2022-10-01T11:05:51.331Z,4.50
2022-10-01T11:06:51.360Z,3.90
2022-10-01T11:07:51.316Z,6.30
2022-10-01T11:08:51.298Z,6.00
2022-10-01T11:09:51.286Z,5.30
2022-10-01T11:10:51.269Z,4.30
2022-10-01T11:11:51.261Z,3.70
2022-10-01T11:12:51.244Z,3.50
2022-10-01T11:13:51.227Z,3.80
2022-10-01T11:14:51.217Z,3.70
2022-10-01T11:15:51.288Z,3.70
2022-10-01T11:16:51.198Z,3.60
2022-10-01T11:17:51.173Z,3.00
2022-10-01T11:18:51.182Z,4.10
2022-10-01T11:19:51.155Z,7.60
2022-10-01T11:20:51.142Z,4.40
2022-10-01T11:21:51.148Z,3.60
2022-10-01T11:22:51.113Z,5.40
2022-10-01T11:23:51.096Z,2.80
2022-10-01T11:24:51.109Z,6.10
2022-10-01T11:25:51.081Z,4.90
2022-10-01T11:26:53.412Z,3.80
2022-10-01T11:27:51.066Z,4.00
2022-10-01T11:28:51.046Z,5.30
2022-10-01T11:29:51.031Z,7.20
2022-10-01T11:30:51.010Z,7.20
2022-10-01T11:31:51.111Z,3.30
2022-10-01T11:32:50.990Z,2.40
2022-10-01T11:33:50.969Z,10.50
2022-10-01T11:34:50.963Z,9.80
2022-10-01T11:35:50.940Z,7.00
2022-10-01T11:36:54.706Z,4.00
2022-10-01T11:37:50.923Z,2.20
2022-10-01T11:38:50.905Z,6.30
2022-10-01T11:39:50.902Z,4.60
2022-10-01T11:40:50.879Z,6.00
2022-10-01T11:41:50.856Z,2.80
2022-10-01T11:42:50.873Z,2.10
2022-10-01T11:43:50.841Z,4.20
2022-10-01T11:44:50.845Z,2.60
2022-10-01T11:45:50.810Z,2.90
2022-10-01T11:46:50.848Z,2.00
2022-10-01T11:47:50.786Z,2.80
2022-10-01T11:48:50.771Z,4.40
2022-10-01T11:49:50.749Z,3.70
2022-10-01T11:50:50.768Z,5.60
2022-10-01T11:51:50.722Z,6.90
2022-10-01T11:52:50.723Z,4.60
2022-10-01T11:53:50.696Z,4.90
2022-10-01T11:54:54.306Z,6.30
2022-10-01T11:55:50.684Z,3.50
2022-10-01T11:56:50.656Z,3.80
2022-10-01T11:57:50.715Z,5.00
2022-10-01T11:58:50.660Z,3.90
2022-10-01T11:59:50.620Z,5.30
2022-10-01T12:00:50.615Z,3.80
2022-10-01T12:01:50.654Z,1.60
2022-10-01T12:02:50.590Z,2.40
2022-10-01T12:03:50.565Z,2.60
2022-10-01T12:04:50.555Z,5.40
2022-10-01T12:05:50.587Z,3.70
2022-10-01T12:06:50.518Z,3.90
2022-10-01T12:07:50.614Z,4.10
2022-10-01T12:08:50.495Z,2.80
2022-10-01T12:09:50.496Z,5.90
2022-10-01T12:10:50.473Z,3.80
2022-10-01T12:11:50.469Z,3.60
2022-10-01T12:12:50.474Z,3.50
2022-10-01T12:13:50.445Z,1.60
2022-10-01T12:14:50.420Z,4.30
2022-10-01T12:15:50.524Z,2.10
2022-10-01T12:16:50.397Z,1.90
2022-10-01T12:17:50.380Z,2.30
2022-10-01T12:18:50.383Z,2.60
2022-10-01T12:19:50.363Z,3.10
2022-10-01T12:20:50.342Z,2.90
2022-10-01T12:21:50.326Z,3.10
2022-10-01T12:22:50.324Z,4.80
2022-10-01T12:23:50.309Z,1.90
2022-10-01T12:24:50.282Z,2.00
2022-10-01T12:25:50.266Z,3.60
2022-10-01T12:26:50.257Z,3.80
2022-10-01T12:27:50.352Z,4.50
2022-10-01T12:28:53.604Z,3.20
2022-10-01T12:29:50.273Z,5.50
2022-10-01T12:30:50.227Z,1.80
2022-10-01T12:31:50.285Z,4.10
2022-10-01T12:32:50.191Z,4.20
2022-10-01T12:33:50.170Z,4.50
2022-10-01T12:34:54.046Z,2.20
2022-10-01T12:35:50.160Z,3.40
2022-10-01T12:36:50.140Z,5.20
2022-10-01T12:37:50.106Z,5.30
2022-10-01T12:38:50.117Z,2.90
2022-10-01T12:39:50.089Z,2.30
2022-10-01T12:40:50.087Z,3.70
2022-10-01T12:41:50.052Z,2.50
2022-10-01T12:42:50.036Z,1.90
2022-10-01T12:43:50.030Z,4.80
2022-10-01T12:44:50.034Z,3.60
2022-10-01T12:45:50.052Z,5.20
2022-10-01T12:46:50.022Z,2.90
2022-10-01T12:47:49.975Z,2.00
2022-10-01T12:48:49.980Z,2.30
2022-10-01T12:49:49.949Z,2.60
2022-10-01T12:50:49.941Z,1.90
2022-10-01T12:51:49.934Z,2.00
2022-10-01T12:52:49.910Z,2.90
2022-10-01T12:53:49.922Z,2.30
2022-10-01T12:54:49.899Z,3.00
2022-10-01T12:55:49.922Z,5.30
2022-10-01T12:56:49.875Z,2.10
2022-10-01T12:57:49.878Z,2.50
2022-10-01T12:58:49.841Z,1.70
2022-10-01T12:59:49.822Z,2.00
2022-10-01T13:00:49.865Z,4.50
2022-10-01T13:01:49.808Z,5.90
2022-10-01T13:02:49.790Z,4.60
2022-10-01T13:03:49.767Z,2.80
2022-10-01T13:04:49.748Z,4.60
2022-10-01T13:05:49.751Z,4.20
2022-10-01T13:06:49.761Z,3.60
2022-10-01T13:07:49.707Z,1.70
2022-10-01T13:08:49.725Z,2.80
2022-10-01T13:09:49.684Z,2.40
2022-10-01T13:10:49.704Z,2.80
2022-10-01T13:11:49.667Z,1.70
2022-10-01T13:12:49.644Z,4.60
2022-10-01T13:13:49.674Z,2.50
2022-10-01T13:14:49.650Z,2.50